createdAt,value
2022-09-06T05:10:50.921Z,101831.88
2022-09-06T05:15:53.247Z,101834.75
2022-09-06T05:20:55.609Z,101838.63
2022-09-06T05:25:57.918Z,101836.88
2022-09-06T05:31:12.245Z,101833.28
2022-09-06T05:36:14.500Z,101817.31
2022-09-06T05:41:16.825Z,101817.88
2022-09-06T05:46:19.239Z,101816.03
2022-09-06T05:51:21.694Z,101816.91
2022-09-06T05:56:24.653Z,101810.69
2022-09-06T06:01:29.839Z,101810.31
2022-09-06T06:06:33.845Z,101809.91
2022-09-06T06:11:36.850Z,101796.88
2022-09-06T06:16:39.139Z,101801.25
2022-09-06T06:21:41.521Z,101794.25
2022-09-06T06:26:44.074Z,101799.66
2022-09-06T06:31:46.396Z,101799.44
2022-09-06T06:36:48.795Z,101805.78
2022-09-06T06:41:51.090Z,101784.31
2022-09-06T06:47:02.719Z,101795.34
2022-09-06T06:52:05.076Z,101786.19
2022-09-06T06:57:09.394Z,101776.09
2022-09-06T07:02:12.658Z,101778.44
2022-09-06T07:07:32.855Z,101775.63
2022-09-06T07:12:36.855Z,101777.25
2022-09-06T07:17:39.738Z,101779.16
2022-09-06T07:22:42.530Z,101785.59
2022-09-06T07:32:52.846Z,101790.06
2022-09-06T07:38:00.320Z,101789.94
2022-09-06T07:43:02.539Z,101791.66
2022-09-06T07:48:04.816Z,101791.00
2022-09-06T07:53:10.786Z,101781.09
2022-09-06T07:58:17.134Z,101782.19
2022-09-06T08:03:19.327Z,101796.81
2022-09-06T08:13:44.580Z,101778.94
2022-09-06T08:18:57.816Z,101771.13
2022-09-06T08:24:04.949Z,101771.72
2022-09-06T08:29:08.901Z,101766.81
2022-09-06T08:34:15.311Z,101763.50
2022-09-06T08:39:17.808Z,101765.06
2022-09-06T08:45:02.319Z,101778.59
2022-09-06T08:50:05.417Z,101780.16
2022-09-06T08:55:10.410Z,101776.81
2022-09-06T09:00:14.997Z,101783.06
2022-09-06T09:05:30.554Z,101768.38
2022-09-06T09:10:45.579Z,101760.22
2022-09-06T09:15:47.929Z,101751.75
2022-09-06T09:20:50.418Z,101738.72
2022-09-06T09:25:55.773Z,101732.06
2022-09-06T09:30:58.375Z,101730.38
2022-09-06T09:36:12.838Z,101725.56
2022-09-06T09:41:31.336Z,101711.81
2022-09-06T09:46:35.685Z,101702.53
2022-09-06T09:51:57.852Z,101692.63
2022-09-06T09:57:00.155Z,101688.91
2022-09-06T10:26:38.585Z,101675.22
2022-09-06T10:31:45.471Z,101669.31
2022-09-06T10:37:03.078Z,101673.44
2022-09-06T10:42:25.261Z,101668.78
2022-09-06T10:47:35.363Z,101672.41
2022-09-06T10:52:44.805Z,101678.13
2022-09-06T11:09:18.014Z,101654.66
2022-09-06T11:14:24.365Z,101654.94
2022-09-06T11:19:39.576Z,101646.16
2022-09-06T11:25:14.344Z,101639.63
2022-09-06T11:30:18.273Z,101631.75
2022-09-06T11:35:32.596Z,101626.66
2022-09-06T17:25:06.964Z,101414.53
2022-09-06T17:30:09.969Z,101415.84
2022-09-06T17:35:12.748Z,101420.81
2022-09-06T17:40:15.386Z,101420.50
2022-09-06T17:45:18.409Z,101420.25
2022-09-06T17:50:20.952Z,101416.50
2022-09-06T17:55:23.315Z,101421.44
2022-09-06T18:00:26.291Z,101418.59
2022-09-06T18:05:28.728Z,101420.19
2022-09-06T18:10:36.914Z,101420.88
2022-09-06T18:15:40.534Z,101422.50
2022-09-06T18:20:42.858Z,101431.00
2022-09-06T18:25:56.243Z,101445.53
2022-09-06T18:31:00.306Z,101439.09
2022-09-06T18:36:04.811Z,101438.75
2022-09-06T18:41:08.907Z,101445.63
2022-09-06T18:46:13.427Z,101444.59
2022-09-06T18:51:16.368Z,101441.78
2022-09-06T18:56:20.403Z,101443.34
2022-09-06T19:01:22.898Z,101438.75
2022-09-06T19:06:26.860Z,101434.22
2022-09-06T19:11:29.521Z,101442.69
2022-09-06T19:16:32.375Z,101441.59
2022-09-06T19:21:40.797Z,101444.94
2022-09-06T19:26:46.520Z,101436.94
2022-09-06T19:31:49.496Z,101430.66
2022-09-06T19:36:55.248Z,101434.84
2022-09-06T19:41:58.032Z,101432.97
